sensor_id;sensor_type;location;lat;lon;timestamp;temperature;humidity
22290;DHT22;11313;50.116;8.424;2023-05-29T00:00:31;24.90;48.00
22290;DHT22;11313;50.116;8.424;2023-05-29T00:02:57;24.90;48.00
22290;DHT22;11313;50.116;8.424;2023-05-29T00:05:22;24.90;48.00
22290;DHT22;11313;50.116;8.424;2023-05-29T00:07:48;24.90;47.90
22290;DHT22;11313;50.116;8.424;2023-05-29T00:10:15;24.90;48.00
22290;DHT22;11313;50.116;8.424;2023-05-29T00:12:41;24.90;48.10
22290;DHT22;11313;50.116;8.424;2023-05-29T00:15:08;24.90;48.10
22290;DHT22;11313;50.116;8.424;2023-05-29T00:17:35;24.90;48.10
22290;DHT22;11313;50.116;8.424;2023-05-29T00:20:01;24.90;48.10
22290;DHT22;11313;50.116;8.424;2023-05-29T00:22:30;24.90;48.10
22290;DHT22;11313;50.116;8.424;2023-05-29T00:24:55;24.90;47.60
22290;DHT22;11313;50.116;8.424;2023-05-29T00:27:21;24.90;48.10
22290;DHT22;11313;50.116;8.424;2023-05-29T00:29:46;24.90;48.10
22290;DHT22;11313;50.116;8.424;2023-05-29T00:32:12;25.00;48.20
22290;DHT22;11313;50.116;8.424;2023-05-29T00:34:37;24.90;48.10
22290;DHT22;11313;50.116;8.424;2023-05-29T00:37:03;25.00;48.20
22290;DHT22;11313;50.116;8.424;2023-05-29T00:39:29;25.00;48.20
22290;DHT22;11313;50.116;8.424;2023-05-29T00:41:54;25.00;48.20
22290;DHT22;11313;50.116;8.424;2023-05-29T00:44:21;25.00;48.20
22290;DHT22;11313;50.116;8.424;2023-05-29T00:46:49;25.00;48.20
22290;DHT22;11313;50.116;8.424;2023-05-29T00:49:18;25.00;48.20
22290;DHT22;11313;50.116;8.424;2023-05-29T00:51:44;25.00;48.40
22290;DHT22;11313;50.116;8.424;2023-05-29T00:54:13;25.00;48.30
22290;DHT22;11313;50.116;8.424;2023-05-29T00:56:40;25.00;48.30
22290;DHT22;11313;50.116;8.424;2023-05-29T00:59:09;25.00;48.20
22290;DHT22;11313;50.116;8.424;2023-05-29T01:01:35;25.00;48.80
22290;DHT22;11313;50.116;8.424;2023-05-29T01:04:03;25.00;48.20
22290;DHT22;11313;50.116;8.424;2023-05-29T01:06:32;25.10;48.30
22290;DHT22;11313;50.116;8.424;2023-05-29T01:08:57;25.10;48.30
22290;DHT22;11313;50.116;8.424;2023-05-29T01:14:21;25.10;48.20
22290;DHT22;11313;50.116;8.424;2023-05-29T01:16:59;25.10;48.30
22290;DHT22;11313;50.116;8.424;2023-05-29T01:19:54;25.10;48.20
22290;DHT22;11313;50.116;8.424;2023-05-29T01:25:51;25.10;48.30
22290;DHT22;11313;50.116;8.424;2023-05-29T01:28:25;25.10;48.20
22290;DHT22;11313;50.116;8.424;2023-05-29T01:30:54;25.10;48.30
22290;DHT22;11313;50.116;8.424;2023-05-29T01:33:19;25.10;48.30
22290;DHT22;11313;50.116;8.424;2023-05-29T01:35:45;25.10;48.30
22290;DHT22;11313;50.116;8.424;2023-05-29T01:38:11;25.10;48.30
22290;DHT22;11313;50.116;8.424;2023-05-29T01:40:36;25.10;48.20
22290;DHT22;11313;50.116;8.424;2023-05-29T01:43:03;25.00;48.20
22290;DHT22;11313;50.116;8.424;2023-05-29T01:45:28;25.00;48.20
22290;DHT22;11313;50.116;8.424;2023-05-29T01:47:55;25.00;48.20
22290;DHT22;11313;50.116;8.424;2023-05-29T01:50:23;25.00;48.20
22290;DHT22;11313;50.116;8.424;2023-05-29T01:52:49;25.00;48.20
22290;DHT22;11313;50.116;8.424;2023-05-29T01:55:15;25.00;48.20
22290;DHT22;11313;50.116;8.424;2023-05-29T01:57:41;25.00;48.20
22290;DHT22;11313;50.116;8.424;2023-05-29T02:00:07;25.00;48.20
22290;DHT22;11313;50.116;8.424;2023-05-29T02:02:38;25.00;48.10
22290;DHT22;11313;50.116;8.424;2023-05-29T02:05:05;25.00;48.10
22290;DHT22;11313;50.116;8.424;2023-05-29T02:07:30;25.00;48.10
22290;DHT22;11313;50.116;8.424;2023-05-29T02:09:56;25.00;48.00
22290;DHT22;11313;50.116;8.424;2023-05-29T02:12:22;25.00;48.10
22290;DHT22;11313;50.116;8.424;2023-05-29T02:14:47;24.90;48.00
22290;DHT22;11313;50.116;8.424;2023-05-29T02:17:13;25.00;48.10
22290;DHT22;11313;50.116;8.424;2023-05-29T02:19:40;24.90;48.00
22290;DHT22;11313;50.116;8.424;2023-05-29T02:22:06;25.00;48.10
22290;DHT22;11313;50.116;8.424;2023-05-29T02:24:32;24.90;48.00
22290;DHT22;11313;50.116;8.424;2023-05-29T02:26:57;24.90;48.00
22290;DHT22;11313;50.116;8.424;2023-05-29T02:29:23;24.90;48.00
22290;DHT22;11313;50.116;8.424;2023-05-29T02:31:48;24.90;47.90
22290;DHT22;11313;50.116;8.424;2023-05-29T02:34:14;24.90;47.90
22290;DHT22;11313;50.116;8.424;2023-05-29T02:36:39;24.90;47.90
22290;DHT22;11313;50.116;8.424;2023-05-29T02:39:05;24.90;48.00
22290;DHT22;11313;50.116;8.424;2023-05-29T02:41:31;24.90;47.90
22290;DHT22;11313;50.116;8.424;2023-05-29T02:43:57;24.90;47.90
22290;DHT22;11313;50.116;8.424;2023-05-29T02:46:22;24.90;47.90
22290;DHT22;11313;50.116;8.424;2023-05-29T02:48:48;24.90;47.90
22290;DHT22;11313;50.116;8.424;2023-05-29T02:51:13;24.90;47.90
22290;DHT22;11313;50.116;8.424;2023-05-29T02:53:39;24.90;47.90
22290;DHT22;11313;50.116;8.424;2023-05-29T02:56:06;24.90;47.90
22290;DHT22;11313;50.116;8.424;2023-05-29T02:58:33;24.90;47.90
22290;DHT22;11313;50.116;8.424;2023-05-29T03:01:00;24.90;47.90
22290;DHT22;11313;50.116;8.424;2023-05-29T03:03:27;24.90;47.90
22290;DHT22;11313;50.116;8.424;2023-05-29T03:05:53;24.90;47.90
22290;DHT22;11313;50.116;8.424;2023-05-29T03:08:19;24.80;47.90
22290;DHT22;11313;50.116;8.424;2023-05-29T03:10:44;24.80;47.80
22290;DHT22;11313;50.116;8.424;2023-05-29T03:13:10;24.80;47.90
22290;DHT22;11313;50.116;8.424;2023-05-29T03:15:36;24.80;47.80
22290;DHT22;11313;50.116;8.424;2023-05-29T03:18:01;24.80;47.80
22290;DHT22;11313;50.116;8.424;2023-05-29T03:20:27;24.70;47.80
22290;DHT22;11313;50.116;8.424;2023-05-29T03:22:53;24.80;47.80
22290;DHT22;11313;50.116;8.424;2023-05-29T03:25:20;24.80;47.80
22290;DHT22;11313;50.116;8.424;2023-05-29T03:27:45;24.90;47.90
22290;DHT22;11313;50.116;8.424;2023-05-29T03:30:11;24.80;47.90
22290;DHT22;11313;50.116;8.424;2023-05-29T03:32:37;24.70;47.80
22290;DHT22;11313;50.116;8.424;2023-05-29T03:35:03;24.80;47.90
22290;DHT22;11313;50.116;8.424;2023-05-29T03:37:29;24.80;47.80
22290;DHT22;11313;50.116;8.424;2023-05-29T03:39:54;24.70;47.80
22290;DHT22;11313;50.116;8.424;2023-05-29T03:42:20;24.80;47.80
22290;DHT22;11313;50.116;8.424;2023-05-29T03:44:46;24.80;47.80
22290;DHT22;11313;50.116;8.424;2023-05-29T03:47:12;24.70;47.80
22290;DHT22;11313;50.116;8.424;2023-05-29T03:49:37;24.70;47.80
22290;DHT22;11313;50.116;8.424;2023-05-29T03:52:03;24.80;47.80
22290;DHT22;11313;50.116;8.424;2023-05-29T03:54:29;24.70;47.80
22290;DHT22;11313;50.116;8.424;2023-05-29T03:56:55;24.70;47.80
22290;DHT22;11313;50.116;8.424;2023-05-29T03:59:20;24.70;47.80
22290;DHT22;11313;50.116;8.424;2023-05-29T04:01:46;24.70;47.80
22290;DHT22;11313;50.116;8.424;2023-05-29T04:04:11;24.70;47.80
22290;DHT22;11313;50.116;8.424;2023-05-29T04:06:37;24.70;47.70
22290;DHT22;11313;50.116;8.424;2023-05-29T04:09:04;24.70;47.80
22290;DHT22;11313;50.116;8.424;2023-05-29T04:11:32;24.70;47.80
22290;DHT22;11313;50.116;8.424;2023-05-29T04:14:00;24.70;47.70
22290;DHT22;11313;50.116;8.424;2023-05-29T04:16:25;24.70;47.70
22290;DHT22;11313;50.116;8.424;2023-05-29T04:18:51;24.80;47.80
22290;DHT22;11313;50.116;8.424;2023-05-29T04:21:16;24.70;47.70
22290;DHT22;11313;50.116;8.424;2023-05-29T04:23:42;24.70;47.70
22290;DHT22;11313;50.116;8.424;2023-05-29T04:26:07;24.70;47.70
22290;DHT22;11313;50.116;8.424;2023-05-29T04:28:33;24.70;47.70
22290;DHT22;11313;50.116;8.424;2023-05-29T04:30:58;24.70;47.70
22290;DHT22;11313;50.116;8.424;2023-05-29T04:33:24;24.70;47.70
22290;DHT22;11313;50.116;8.424;2023-05-29T04:35:50;24.70;47.70
22290;DHT22;11313;50.116;8.424;2023-05-29T04:38:16;24.70;47.70
22290;DHT22;11313;50.116;8.424;2023-05-29T04:40:42;24.70;47.70
22290;DHT22;11313;50.116;8.424;2023-05-29T04:43:09;24.70;47.70
22290;DHT22;11313;50.116;8.424;2023-05-29T04:45:35;24.70;47.70
22290;DHT22;11313;50.116;8.424;2023-05-29T04:48:03;24.70;47.70
22290;DHT22;11313;50.116;8.424;2023-05-29T04:50:28;24.70;47.70
22290;DHT22;11313;50.116;8.424;2023-05-29T04:52:56;24.70;47.60
22290;DHT22;11313;50.116;8.424;2023-05-29T04:55:22;24.70;47.60
22290;DHT22;11313;50.116;8.424;2023-05-29T04:57:48;24.70;47.60
22290;DHT22;11313;50.116;8.424;2023-05-29T05:00:14;24.70;47.60
22290;DHT22;11313;50.116;8.424;2023-05-29T05:02:43;24.70;47.60
22290;DHT22;11313;50.116;8.424;2023-05-29T05:05:09;24.80;47.60
22290;DHT22;11313;50.116;8.424;2023-05-29T05:07:35;24.70;47.50
22290;DHT22;11313;50.116;8.424;2023-05-29T05:10:01;24.70;47.50
22290;DHT22;11313;50.116;8.424;2023-05-29T05:12:27;24.80;47.60
22290;DHT22;11313;50.116;8.424;2023-05-29T05:14:52;24.80;47.60
22290;DHT22;11313;50.116;8.424;2023-05-29T05:17:18;24.80;47.50
22290;DHT22;11313;50.116;8.424;2023-05-29T05:19:43;24.80;47.60
22290;DHT22;11313;50.116;8.424;2023-05-29T05:22:09;24.80;47.50
22290;DHT22;11313;50.116;8.424;2023-05-29T05:24:34;24.80;47.50
22290;DHT22;11313;50.116;8.424;2023-05-29T05:27:00;24.80;47.50
22290;DHT22;11313;50.116;8.424;2023-05-29T05:29:26;24.80;47.40
22290;DHT22;11313;50.116;8.424;2023-05-29T05:31:51;24.80;47.40
22290;DHT22;11313;50.116;8.424;2023-05-29T05:34:17;24.80;47.40
22290;DHT22;11313;50.116;8.424;2023-05-29T05:36:42;24.80;47.40
22290;DHT22;11313;50.116;8.424;2023-05-29T05:39:08;24.90;47.40
22290;DHT22;11313;50.116;8.424;2023-05-29T05:41:34;24.90;47.30
22290;DHT22;11313;50.116;8.424;2023-05-29T05:43:59;24.90;47.30
22290;DHT22;11313;50.116;8.424;2023-05-29T05:46:25;24.90;47.30
22290;DHT22;11313;50.116;8.424;2023-05-29T05:48:51;24.90;47.30
22290;DHT22;11313;50.116;8.424;2023-05-29T05:51:17;24.90;47.30
22290;DHT22;11313;50.116;8.424;2023-05-29T05:53:43;24.90;47.30
22290;DHT22;11313;50.116;8.424;2023-05-29T05:56:08;24.90;47.30
22290;DHT22;11313;50.116;8.424;2023-05-29T05:58:34;24.90;47.30
22290;DHT22;11313;50.116;8.424;2023-05-29T06:01:00;24.90;47.30
22290;DHT22;11313;50.116;8.424;2023-05-29T06:03:26;24.90;47.20
22290;DHT22;11313;50.116;8.424;2023-05-29T06:05:52;24.90;47.20
22290;DHT22;11313;50.116;8.424;2023-05-29T06:08:19;24.90;47.80
22290;DHT22;11313;50.116;8.424;2023-05-29T06:10:45;24.90;47.10
22290;DHT22;11313;50.116;8.424;2023-05-29T06:13:11;24.90;47.80
22290;DHT22;11313;50.116;8.424;2023-05-29T06:15:37;24.90;47.10
22290;DHT22;11313;50.116;8.424;2023-05-29T06:18:02;24.90;47.10
22290;DHT22;11313;50.116;8.424;2023-05-29T06:20:31;24.90;47.10
22290;DHT22;11313;50.116;8.424;2023-05-29T06:22:56;25.00;47.20
22290;DHT22;11313;50.116;8.424;2023-05-29T06:25:22;25.00;47.10
22290;DHT22;11313;50.116;8.424;2023-05-29T06:27:47;24.90;47.10
22290;DHT22;11313;50.116;8.424;2023-05-29T06:30:13;25.00;47.10
22290;DHT22;11313;50.116;8.424;2023-05-29T06:32:39;24.90;47.00
22290;DHT22;11313;50.116;8.424;2023-05-29T06:35:05;25.00;47.10
22290;DHT22;11313;50.116;8.424;2023-05-29T06:37:31;24.90;47.10
22290;DHT22;11313;50.116;8.424;2023-05-29T06:39:57;24.90;47.10
22290;DHT22;11313;50.116;8.424;2023-05-29T06:42:22;24.90;47.10
22290;DHT22;11313;50.116;8.424;2023-05-29T06:44:48;24.90;47.10
22290;DHT22;11313;50.116;8.424;2023-05-29T06:47:13;24.90;47.00
22290;DHT22;11313;50.116;8.424;2023-05-29T06:49:39;24.90;47.00
22290;DHT22;11313;50.116;8.424;2023-05-29T06:52:04;24.90;47.00
22290;DHT22;11313;50.116;8.424;2023-05-29T06:54:30;24.90;47.00
22290;DHT22;11313;50.116;8.424;2023-05-29T06:56:55;24.90;47.00
22290;DHT22;11313;50.116;8.424;2023-05-29T06:59:22;24.90;47.00
22290;DHT22;11313;50.116;8.424;2023-05-29T07:01:47;24.90;47.10
22290;DHT22;11313;50.116;8.424;2023-05-29T07:04:13;24.90;47.00
22290;DHT22;11313;50.116;8.424;2023-05-29T07:06:38;24.90;47.70
22290;DHT22;11313;50.116;8.424;2023-05-29T07:09:04;24.90;47.00
22290;DHT22;11313;50.116;8.424;2023-05-29T07:11:30;24.90;47.00
22290;DHT22;11313;50.116;8.424;2023-05-29T07:13:55;24.90;47.10
22290;DHT22;11313;50.116;8.424;2023-05-29T07:16:21;24.90;47.00
22290;DHT22;11313;50.116;8.424;2023-05-29T07:18:46;24.90;47.00
22290;DHT22;11313;50.116;8.424;2023-05-29T07:21:11;24.90;47.00
22290;DHT22;11313;50.116;8.424;2023-05-29T07:23:37;24.90;47.00
22290;DHT22;11313;50.116;8.424;2023-05-29T07:26:02;24.90;47.00
22290;DHT22;11313;50.116;8.424;2023-05-29T07:28:28;24.90;47.00
22290;DHT22;11313;50.116;8.424;2023-05-29T07:30:53;24.90;47.00
22290;DHT22;11313;50.116;8.424;2023-05-29T07:33:19;24.90;47.00
22290;DHT22;11313;50.116;8.424;2023-05-29T07:35:45;24.90;47.10
22290;DHT22;11313;50.116;8.424;2023-05-29T07:38:10;24.90;47.00
22290;DHT22;11313;50.116;8.424;2023-05-29T07:40:36;24.90;47.10
22290;DHT22;11313;50.116;8.424;2023-05-29T07:43:01;24.90;47.10
22290;DHT22;11313;50.116;8.424;2023-05-29T07:45:27;24.90;47.10
22290;DHT22;11313;50.116;8.424;2023-05-29T07:47:53;24.80;41.60
22290;DHT22;11313;50.116;8.424;2023-05-29T07:50:18;24.60;41.80
22290;DHT22;11313;50.116;8.424;2023-05-29T07:52:45;24.50;42.40
22290;DHT22;11313;50.116;8.424;2023-05-29T07:55:10;24.50;41.80
22290;DHT22;11313;50.116;8.424;2023-05-29T07:57:36;24.50;42.10
22290;DHT22;11313;50.116;8.424;2023-05-29T08:00:02;24.40;41.90
22290;DHT22;11313;50.116;8.424;2023-05-29T08:02:33;24.40;41.80
22290;DHT22;11313;50.116;8.424;2023-05-29T08:04:59;24.40;41.10
22290;DHT22;11313;50.116;8.424;2023-05-29T08:07:25;24.40;41.20
22290;DHT22;11313;50.116;8.424;2023-05-29T08:09:52;24.40;41.60
22290;DHT22;11313;50.116;8.424;2023-05-29T08:12:18;24.40;41.10
22290;DHT22;11313;50.116;8.424;2023-05-29T08:14:43;24.40;41.00
22290;DHT22;11313;50.116;8.424;2023-05-29T08:17:09;24.40;41.90
22290;DHT22;11313;50.116;8.424;2023-05-29T08:19:34;24.40;41.70
22290;DHT22;11313;50.116;8.424;2023-05-29T08:22:00;24.30;41.20
22290;DHT22;11313;50.116;8.424;2023-05-29T08:24:26;24.30;41.20
22290;DHT22;11313;50.116;8.424;2023-05-29T08:26:53;24.30;40.00
22290;DHT22;11313;50.116;8.424;2023-05-29T08:29:18;24.20;41.00
22290;DHT22;11313;50.116;8.424;2023-05-29T08:31:44;24.20;41.10
22290;DHT22;11313;50.116;8.424;2023-05-29T08:34:09;24.20;41.00
22290;DHT22;11313;50.116;8.424;2023-05-29T08:36:35;24.20;40.70
22290;DHT22;11313;50.116;8.424;2023-05-29T08:39:01;24.20;41.00
22290;DHT22;11313;50.116;8.424;2023-05-29T08:41:51;24.20;40.30
22290;DHT22;11313;50.116;8.424;2023-05-29T08:44:23;24.20;39.30
22290;DHT22;11313;50.116;8.424;2023-05-29T08:46:54;24.10;39.10
22290;DHT22;11313;50.116;8.424;2023-05-29T08:49:20;24.10;40.10
22290;DHT22;11313;50.116;8.424;2023-05-29T08:51:49;24.10;40.40
22290;DHT22;11313;50.116;8.424;2023-05-29T08:54:18;24.10;40.70
22290;DHT22;11313;50.116;8.424;2023-05-29T08:56:44;24.20;40.10
22290;DHT22;11313;50.116;8.424;2023-05-29T08:59:11;24.20;40.00
22290;DHT22;11313;50.116;8.424;2023-05-29T09:01:38;24.20;40.60
22290;DHT22;11313;50.116;8.424;2023-05-29T09:04:04;24.20;40.50
22290;DHT22;11313;50.116;8.424;2023-05-29T09:06:30;24.20;40.80
22290;DHT22;11313;50.116;8.424;2023-05-29T09:08:56;24.20;40.90
22290;DHT22;11313;50.116;8.424;2023-05-29T09:11:23;24.20;40.20
22290;DHT22;11313;50.116;8.424;2023-05-29T09:13:48;24.20;40.70
22290;DHT22;11313;50.116;8.424;2023-05-29T09:16:16;24.20;41.00
22290;DHT22;11313;50.116;8.424;2023-05-29T09:18:41;24.20;41.10
22290;DHT22;11313;50.116;8.424;2023-05-29T09:21:15;24.20;40.40
22290;DHT22;11313;50.116;8.424;2023-05-29T09:23:52;24.10;40.90
22290;DHT22;11313;50.116;8.424;2023-05-29T09:26:17;24.10;40.70
22290;DHT22;11313;50.116;8.424;2023-05-29T09:28:45;24.10;40.50
22290;DHT22;11313;50.116;8.424;2023-05-29T09:31:15;24.10;40.60
22290;DHT22;11313;50.116;8.424;2023-05-29T09:33:48;24.10;40.70
22290;DHT22;11313;50.116;8.424;2023-05-29T09:36:21;24.10;40.10
22290;DHT22;11313;50.116;8.424;2023-05-29T09:38:47;24.00;39.80
22290;DHT22;11313;50.116;8.424;2023-05-29T09:41:13;24.00;40.30
22290;DHT22;11313;50.116;8.424;2023-05-29T09:43:38;24.10;40.50
22290;DHT22;11313;50.116;8.424;2023-05-29T09:46:06;24.10;40.20
22290;DHT22;11313;50.116;8.424;2023-05-29T09:48:35;24.10;40.30
22290;DHT22;11313;50.116;8.424;2023-05-29T09:51:02;24.10;40.60
22290;DHT22;11313;50.116;8.424;2023-05-29T09:53:28;24.10;40.20
22290;DHT22;11313;50.116;8.424;2023-05-29T09:55:57;24.10;39.20
22290;DHT22;11313;50.116;8.424;2023-05-29T09:58:24;24.10;39.60
22290;DHT22;11313;50.116;8.424;2023-05-29T10:00:51;24.10;40.10
22290;DHT22;11313;50.116;8.424;2023-05-29T10:03:17;24.10;40.10
22290;DHT22;11313;50.116;8.424;2023-05-29T10:05:47;24.10;40.00
22290;DHT22;11313;50.116;8.424;2023-05-29T10:08:14;24.10;40.30
22290;DHT22;11313;50.116;8.424;2023-05-29T10:10:45;24.10;39.20
22290;DHT22;11313;50.116;8.424;2023-05-29T10:13:13;24.10;39.00
22290;DHT22;11313;50.116;8.424;2023-05-29T10:15:45;24.10;36.90
22290;DHT22;11313;50.116;8.424;2023-05-29T10:18:20;24.00;37.70
22290;DHT22;11313;50.116;8.424;2023-05-29T10:20:49;24.00;38.10
22290;DHT22;11313;50.116;8.424;2023-05-29T10:23:21;24.00;37.70
22290;DHT22;11313;50.116;8.424;2023-05-29T10:25:53;24.00;36.30
22290;DHT22;11313;50.116;8.424;2023-05-29T10:28:21;23.90;35.50
22290;DHT22;11313;50.116;8.424;2023-05-29T10:31:01;23.90;36.10
22290;DHT22;11313;50.116;8.424;2023-05-29T10:36:48;24.00;37.60
22290;DHT22;11313;50.116;8.424;2023-05-29T10:39:15;24.00;38.10
22290;DHT22;11313;50.116;8.424;2023-05-29T10:41:41;24.00;38.60
22290;DHT22;11313;50.116;8.424;2023-05-29T10:47:03;24.00;39.20
22290;DHT22;11313;50.116;8.424;2023-05-29T10:49:29;24.10;40.20
22290;DHT22;11313;50.116;8.424;2023-05-29T10:51:57;24.10;39.70
22290;DHT22;11313;50.116;8.424;2023-05-29T10:54:25;24.10;39.90
22290;DHT22;11313;50.116;8.424;2023-05-29T10:56:58;24.10;40.00
22290;DHT22;11313;50.116;8.424;2023-05-29T10:59:26;24.10;40.10
22290;DHT22;11313;50.116;8.424;2023-05-29T11:01:53;24.10;40.20
22290;DHT22;11313;50.116;8.424;2023-05-29T11:06:50;24.20;40.50
22290;DHT22;11313;50.116;8.424;2023-05-29T11:09:34;24.20;40.60
22290;DHT22;11313;50.116;8.424;2023-05-29T11:12:13;24.20;40.70
22290;DHT22;11313;50.116;8.424;2023-05-29T11:14:56;24.20;40.90
22290;DHT22;11313;50.116;8.424;2023-05-29T11:17:32;24.20;41.00
22290;DHT22;11313;50.116;8.424;2023-05-29T11:20:01;24.20;41.10
22290;DHT22;11313;50.116;8.424;2023-05-29T11:25:04;24.20;41.20
22290;DHT22;11313;50.116;8.424;2023-05-29T11:27:30;24.20;41.30
22290;DHT22;11313;50.116;8.424;2023-05-29T11:29:57;24.30;41.50
22290;DHT22;11313;50.116;8.424;2023-05-29T11:32:26;24.30;41.60
22290;DHT22;11313;50.116;8.424;2023-05-29T11:34:53;24.30;41.70
22290;DHT22;11313;50.116;8.424;2023-05-29T11:37:22;24.30;41.80
22290;DHT22;11313;50.116;8.424;2023-05-29T11:39:48;24.30;41.90
22290;DHT22;11313;50.116;8.424;2023-05-29T11:42:15;24.30;42.00
22290;DHT22;11313;50.116;8.424;2023-05-29T11:44:40;24.30;42.00
22290;DHT22;11313;50.116;8.424;2023-05-29T11:47:07;24.30;42.10
22290;DHT22;11313;50.116;8.424;2023-05-29T11:49:34;24.30;42.20
22290;DHT22;11313;50.116;8.424;2023-05-29T11:52:10;24.30;42.20
22290;DHT22;11313;50.116;8.424;2023-05-29T11:54:36;24.30;42.30
22290;DHT22;11313;50.116;8.424;2023-05-29T11:57:02;24.30;42.30
22290;DHT22;11313;50.116;8.424;2023-05-29T11:59:32;24.30;42.40
22290;DHT22;11313;50.116;8.424;2023-05-29T12:01:58;24.30;42.50
22290;DHT22;11313;50.116;8.424;2023-05-29T12:04:24;24.30;42.60
22290;DHT22;11313;50.116;8.424;2023-05-29T12:06:49;24.30;42.60
22290;DHT22;11313;50.116;8.424;2023-05-29T12:09:28;24.40;42.60
22290;DHT22;11313;50.116;8.424;2023-05-29T12:12:01;24.40;42.70
22290;DHT22;11313;50.116;8.424;2023-05-29T12:14:27;24.40;42.70
22290;DHT22;11313;50.116;8.424;2023-05-29T12:16:53;24.40;42.80
22290;DHT22;11313;50.116;8.424;2023-05-29T12:19:19;24.40;42.90
22290;DHT22;11313;50.116;8.424;2023-05-29T12:21:45;24.40;42.90
22290;DHT22;11313;50.116;8.424;2023-05-29T12:24:10;24.40;42.90
22290;DHT22;11313;50.116;8.424;2023-05-29T12:26:36;24.40;43.00
22290;DHT22;11313;50.116;8.424;2023-05-29T12:29:03;24.40;43.00
22290;DHT22;11313;50.116;8.424;2023-05-29T12:31:30;24.40;43.10
22290;DHT22;11313;50.116;8.424;2023-05-29T12:34:14;24.40;43.20
22290;DHT22;11313;50.116;8.424;2023-05-29T12:36:41;24.40;43.20
22290;DHT22;11313;50.116;8.424;2023-05-29T12:39:08;24.40;43.20
22290;DHT22;11313;50.116;8.424;2023-05-29T12:41:38;24.40;43.20
22290;DHT22;11313;50.116;8.424;2023-05-29T12:44:05;24.40;43.30
22290;DHT22;11313;50.116;8.424;2023-05-29T12:46:40;24.40;43.30
22290;DHT22;11313;50.116;8.424;2023-05-29T12:49:26;24.40;43.30
22290;DHT22;11313;50.116;8.424;2023-05-29T12:51:54;24.40;43.40
22290;DHT22;11313;50.116;8.424;2023-05-29T12:54:19;24.40;43.40
22290;DHT22;11313;50.116;8.424;2023-05-29T12:56:45;24.40;43.40
22290;DHT22;11313;50.116;8.424;2023-05-29T12:59:11;24.40;43.40
22290;DHT22;11313;50.116;8.424;2023-05-29T13:01:38;24.40;43.50
22290;DHT22;11313;50.116;8.424;2023-05-29T13:04:04;24.40;43.50
22290;DHT22;11313;50.116;8.424;2023-05-29T13:06:32;24.40;43.50
22290;DHT22;11313;50.116;8.424;2023-05-29T13:08:58;24.40;43.50
22290;DHT22;11313;50.116;8.424;2023-05-29T13:11:23;24.50;43.70
22290;DHT22;11313;50.116;8.424;2023-05-29T13:13:49;24.40;43.60
22290;DHT22;11313;50.116;8.424;2023-05-29T13:16:15;24.50;43.70
22290;DHT22;11313;50.116;8.424;2023-05-29T13:18:43;24.40;43.60
22290;DHT22;11313;50.116;8.424;2023-05-29T13:21:08;24.50;43.80
22290;DHT22;11313;50.116;8.424;2023-05-29T13:23:34;24.50;43.80
22290;DHT22;11313;50.116;8.424;2023-05-29T13:25:59;24.50;43.80
22290;DHT22;11313;50.116;8.424;2023-05-29T13:28:25;24.50;43.80
22290;DHT22;11313;50.116;8.424;2023-05-29T13:30:50;24.50;43.80
22290;DHT22;11313;50.116;8.424;2023-05-29T13:33:16;24.50;43.90
22290;DHT22;11313;50.116;8.424;2023-05-29T13:35:41;24.50;43.90
22290;DHT22;11313;50.116;8.424;2023-05-29T13:38:07;24.50;43.90
22290;DHT22;11313;50.116;8.424;2023-05-29T13:40:32;24.50;43.90
22290;DHT22;11313;50.116;8.424;2023-05-29T13:42:58;24.50;44.00
22290;DHT22;11313;50.116;8.424;2023-05-29T13:45:23;24.50;44.00
22290;DHT22;11313;50.116;8.424;2023-05-29T13:47:49;24.50;44.00
22290;DHT22;11313;50.116;8.424;2023-05-29T13:50:14;24.50;44.00
22290;DHT22;11313;50.116;8.424;2023-05-29T13:52:40;24.50;44.00
22290;DHT22;11313;50.116;8.424;2023-05-29T13:55:06;24.50;44.10
22290;DHT22;11313;50.116;8.424;2023-05-29T13:57:34;24.50;44.10
22290;DHT22;11313;50.116;8.424;2023-05-29T14:00:00;24.50;44.10
22290;DHT22;11313;50.116;8.424;2023-05-29T14:02:25;24.50;44.10
22290;DHT22;11313;50.116;8.424;2023-05-29T14:04:51;24.50;44.20
22290;DHT22;11313;50.116;8.424;2023-05-29T14:07:17;24.50;44.20
22290;DHT22;11313;50.116;8.424;2023-05-29T14:09:42;24.50;44.20
22290;DHT22;11313;50.116;8.424;2023-05-29T14:12:08;24.50;44.20
22290;DHT22;11313;50.116;8.424;2023-05-29T14:14:33;24.50;44.30
22290;DHT22;11313;50.116;8.424;2023-05-29T14:17:00;24.50;44.30
22290;DHT22;11313;50.116;8.424;2023-05-29T14:19:25;24.50;44.30
22290;DHT22;11313;50.116;8.424;2023-05-29T14:21:51;24.50;44.30
22290;DHT22;11313;50.116;8.424;2023-05-29T14:24:17;24.50;44.40
22290;DHT22;11313;50.116;8.424;2023-05-29T14:26:44;24.50;44.30
22290;DHT22;11313;50.116;8.424;2023-05-29T14:29:12;24.60;44.40
22290;DHT22;11313;50.116;8.424;2023-05-29T14:31:39;24.50;44.40
22290;DHT22;11313;50.116;8.424;2023-05-29T14:34:05;24.60;44.50
22290;DHT22;11313;50.116;8.424;2023-05-29T14:36:30;24.50;44.50
22290;DHT22;11313;50.116;8.424;2023-05-29T14:38:56;24.60;44.50
22290;DHT22;11313;50.116;8.424;2023-05-29T14:41:21;24.60;44.50
22290;DHT22;11313;50.116;8.424;2023-05-29T14:43:47;24.60;44.50
22290;DHT22;11313;50.116;8.424;2023-05-29T14:46:12;24.60;44.60
22290;DHT22;11313;50.116;8.424;2023-05-29T14:48:38;24.60;44.60
22290;DHT22;11313;50.116;8.424;2023-05-29T14:51:04;24.60;44.60
22290;DHT22;11313;50.116;8.424;2023-05-29T14:53:29;24.60;44.60
22290;DHT22;11313;50.116;8.424;2023-05-29T14:55:57;24.60;44.60
22290;DHT22;11313;50.116;8.424;2023-05-29T14:58:22;24.60;44.60
22290;DHT22;11313;50.116;8.424;2023-05-29T15:00:48;24.60;44.60
22290;DHT22;11313;50.116;8.424;2023-05-29T15:03:13;24.60;44.60
22290;DHT22;11313;50.116;8.424;2023-05-29T15:05:39;24.60;44.60
22290;DHT22;11313;50.116;8.424;2023-05-29T15:08:04;24.60;44.70
22290;DHT22;11313;50.116;8.424;2023-05-29T15:10:30;24.60;44.70
22290;DHT22;11313;50.116;8.424;2023-05-29T15:12:56;24.60;44.70
22290;DHT22;11313;50.116;8.424;2023-05-29T15:15:25;24.60;44.70
22290;DHT22;11313;50.116;8.424;2023-05-29T15:17:52;24.60;44.70
22290;DHT22;11313;50.116;8.424;2023-05-29T15:20:24;24.60;44.70
22290;DHT22;11313;50.116;8.424;2023-05-29T15:22:51;24.60;44.80
22290;DHT22;11313;50.116;8.424;2023-05-29T15:25:17;24.60;44.80
22290;DHT22;11313;50.116;8.424;2023-05-29T15:27:44;24.60;44.80
22290;DHT22;11313;50.116;8.424;2023-05-29T15:30:16;24.60;44.80
22290;DHT22;11313;50.116;8.424;2023-05-29T15:32:44;24.60;44.80
22290;DHT22;11313;50.116;8.424;2023-05-29T15:35:12;24.60;44.80
22290;DHT22;11313;50.116;8.424;2023-05-29T15:37:38;24.60;44.90
22290;DHT22;11313;50.116;8.424;2023-05-29T15:40:06;24.70;44.90
22290;DHT22;11313;50.116;8.424;2023-05-29T15:42:31;24.70;44.90
22290;DHT22;11313;50.116;8.424;2023-05-29T15:44:57;24.60;44.90